Ds Blue Wave — A8YK2 — position and weather

sailwx.info

Track history (hours):
 
Tides and Currents Weather Stations Pressure Air Temp Water Temp Dewpoint Dewpoint Depression Visibility Wind Speed Wind Dir Waves Ship Positions

Ds Blue Wave

Last reported at 2017-Jan-17 08:33 UTC. Time now 2017-Jan-17 15:12 UTC.
Position N 34°36' E 135°03'.

Length 129 m; draft 7.3 m.

Type: Cargo ship. MMSI: 636092200.

Date/timePositionNaut miles runAvg speedWind from/ knotsBaromVisibWave heightAir tempDewpointWater temp
2017-Jan-17 08:33N 34°36' E 135°03'1010.4
2017-Jan-17 07:33N 34°40' E 135°15'1 1.0
2017-Jan-17 06:31N 34°41' E 135°15'0 0.0
2017-Jan-17 05:25N 34°41' E 135°15'0 0.0
2017-Jan-17 04:31N 34°41' E 135°15'0 0.0
2017-Jan-17 03:31N 34°41' E 135°15'0 0.0
2017-Jan-17 02:31N 34°41' E 135°15'0 0.0
2017-Jan-17 01:31N 34°41' E 135°15'0 0.0
2017-Jan-17 00:31N 34°41' E 135°15'1 0.7
2017-Jan-16 23:33N 34°40' E 135°15'3 3.2
2017-Jan-16 22:33N 34°38' E 135°18'0 0.0
2017-Jan-16 21:27N 34°38' E 135°18'0 0.0
2017-Jan-16 20:33N 34°38' E 135°18'0 0.1
2017-Jan-16 19:34N 34°38' E 135°18'5 4.1
2017-Jan-16 18:21N 34°39' E 135°24'0 0.0
2017-Jan-16 17:27N 34°39' E 135°24'0 0.0
2017-Jan-16 16:27N 34°39' E 135°24'0 0.0
2017-Jan-16 15:33N 34°39' E 135°24'0 0.0
2017-Jan-16 13:15N 34°39' E 135°24'0 0.0
2017-Jan-16 11:27N 34°39' E 135°24'0 0.0
2017-Jan-16 10:27N 34°39' E 135°24'0 0.0
2017-Jan-16 09:27N 34°39' E 135°24'3 3.7
2017-Jan-16 08:33N 34°37' E 135°21'1414.2
2017-Jan-16 07:33N 34°35' E 135°04'  
2017-Jan-14 03:25N 31°08' E 122°15'37 9.5
2017-Jan-13 23:31N 31°23' E 121°35'0 0.0
2017-Jan-13 22:31N 31°23' E 121°35'0 0.0
2017-Jan-13 21:31N 31°22' E 121°35'0 0.0
2017-Jan-13 20:31N 31°22' E 121°35'0 0.0
2017-Jan-13 19:31N 31°22' E 121°35'0 0.0
2017-Jan-13 18:10N 31°23' E 121°35'0 0.0
2017-Jan-13 17:19N 31°23' E 121°35'0 0.0
2017-Jan-13 16:25N 31°22' E 121°35'0 0.0
2017-Jan-13 15:31N 31°22' E 121°35'0 0.0
2017-Jan-13 14:31N 31°22' E 121°35'0 0.0
2017-Jan-13 13:28N 31°23' E 121°35'0 0.0
2017-Jan-13 12:22N 31°22' E 121°35'0 0.0
2017-Jan-13 11:28N 31°23' E 121°35'0 0.0
2017-Jan-13 10:31N 31°23' E 121°35'0 0.0
2017-Jan-13 09:28N 31°22' E 121°35'0 0.0
2017-Jan-13 08:33N 31°22' E 121°35'0 0.0
2017-Jan-13 07:33N 31°23' E 121°35'0 0.0
2017-Jan-13 06:33N 31°23' E 121°35'0 0.4
2017-Jan-13 05:31N 31°23' E 121°35'3 3.6
2017-Jan-13 04:33N 31°22' E 121°38'1010.1
2017-Jan-13 03:33N 31°15' E 121°47'1010.0
2017-Jan-13 02:33N 31°08' E 121°55'  
2017-Jan-10 17:23N 34°36' E 134°54'910.7
2017-Jan-10 16:33N 34°36' E 135°04'10 9.7
2017-Jan-10 15:33N 34°40' E 135°15'1 0.5
2017-Jan-10 14:25N 34°41' E 135°15'0 0.0
2017-Jan-10 13:31N 34°41' E 135°15'0 0.0
2017-Jan-10 12:31N 34°41' E 135°15'0 0.0
2017-Jan-10 11:31N 34°41' E 135°15'0 0.0
2017-Jan-10 10:31N 34°41' E 135°15'0 0.0
2017-Jan-10 09:25N 34°41' E 135°15'2 2.6
2017-Jan-10 08:33N 34°39' E 135°16'6 3.0
2017-Jan-10 06:26N 34°39' E 135°24'0 0.0
2017-Jan-10 05:26N 34°39' E 135°24'0 0.0
2017-Jan-10 04:26N 34°39' E 135°24'0 0.0
2017-Jan-09 23:14N 34°39' E 135°24'0 0.0
2017-Jan-09 22:26N 34°39' E 135°24'2 2.3
2017-Jan-09 21:33N 34°37' E 135°22'0 0.4
2017-Jan-09 20:23N 34°37' E 135°22'0 0.0
2017-Jan-09 19:23N 34°37' E 135°22'0 0.0
2017-Jan-09 18:23N 34°37' E 135°22'0 0.0
2017-Jan-09 17:29N 34°37' E 135°22'0 0.0
2017-Jan-09 16:29N 34°37' E 135°22'0 0.0
2017-Jan-09 14:17N 34°37' E 135°22'0 0.0
2017-Jan-09 13:29N 34°37' E 135°22'0 0.0
2017-Jan-09 12:23N 34°37' E 135°22'0 0.0
2017-Jan-09 11:17N 34°37' E 135°22'0 0.0
2017-Jan-09 10:23N 34°37' E 135°22'0 0.0
2017-Jan-09 09:23N 34°37' E 135°22'0 0.0
2017-Jan-09 08:29N 34°37' E 135°22'0 0.0
2017-Jan-09 07:23N 34°37' E 135°22'0 0.0
2017-Jan-09 06:11N 34°37' E 135°22'1 0.9
2017-Jan-09 05:33N 34°37' E 135°21'10 9.8
2017-Jan-09 04:33N 34°35' E 135°10'  
Track history (hours):
 
Tides and Currents Weather Stations Pressure Air Temp Water Temp Dewpoint Dewpoint Depression Visibility Wind Speed Wind Dir Waves Ship Positions

Ds Blue Wave

Last reported at 2017-Jan-17 08:33 UTC. Time now 2017-Jan-17 15:12 UTC.
Position N 34°36' E 135°03'.

Length 129 m; draft 7.3 m.

Type: Cargo ship. MMSI: 636092200.

Date/timePositionNaut miles runAvg speedWind from/ knotsBaromVisibWave heightAir tempDewpointWater temp
2017-Jan-17 08:33N 34°36' E 135°03'1010.4
2017-Jan-17 07:33N 34°40' E 135°15'1 1.0
2017-Jan-17 06:31N 34°41' E 135°15'0 0.0
2017-Jan-17 05:25N 34°41' E 135°15'0 0.0
2017-Jan-17 04:31N 34°41' E 135°15'0 0.0
2017-Jan-17 03:31N 34°41' E 135°15'0 0.0
2017-Jan-17 02:31N 34°41' E 135°15'0 0.0
2017-Jan-17 01:31N 34°41' E 135°15'0 0.0
2017-Jan-17 00:31N 34°41' E 135°15'1 0.7
2017-Jan-16 23:33N 34°40' E 135°15'3 3.2
2017-Jan-16 22:33N 34°38' E 135°18'0 0.0
2017-Jan-16 21:27N 34°38' E 135°18'0 0.0
2017-Jan-16 20:33N 34°38' E 135°18'0 0.1
2017-Jan-16 19:34N 34°38' E 135°18'5 4.1
2017-Jan-16 18:21N 34°39' E 135°24'0 0.0
2017-Jan-16 17:27N 34°39' E 135°24'0 0.0
2017-Jan-16 16:27N 34°39' E 135°24'0 0.0
2017-Jan-16 15:33N 34°39' E 135°24'0 0.0
2017-Jan-16 13:15N 34°39' E 135°24'0 0.0
2017-Jan-16 11:27N 34°39' E 135°24'0 0.0
2017-Jan-16 10:27N 34°39' E 135°24'0 0.0
2017-Jan-16 09:27N 34°39' E 135°24'3 3.7
2017-Jan-16 08:33N 34°37' E 135°21'1414.2
2017-Jan-16 07:33N 34°35' E 135°04'  
2017-Jan-14 03:25N 31°08' E 122°15'37 9.5
2017-Jan-13 23:31N 31°23' E 121°35'0 0.0
2017-Jan-13 22:31N 31°23' E 121°35'0 0.0
2017-Jan-13 21:31N 31°22' E 121°35'0 0.0
2017-Jan-13 20:31N 31°22' E 121°35'0 0.0
2017-Jan-13 19:31N 31°22' E 121°35'0 0.0
2017-Jan-13 18:10N 31°23' E 121°35'0 0.0
2017-Jan-13 17:19N 31°23' E 121°35'0 0.0
2017-Jan-13 16:25N 31°22' E 121°35'0 0.0
2017-Jan-13 15:31N 31°22' E 121°35'0 0.0
2017-Jan-13 14:31N 31°22' E 121°35'0 0.0
2017-Jan-13 13:28N 31°23' E 121°35'0 0.0
2017-Jan-13 12:22N 31°22' E 121°35'0 0.0
2017-Jan-13 11:28N 31°23' E 121°35'0 0.0
2017-Jan-13 10:31N 31°23' E 121°35'0 0.0
2017-Jan-13 09:28N 31°22' E 121°35'0 0.0
2017-Jan-13 08:33N 31°22' E 121°35'0 0.0
2017-Jan-13 07:33N 31°23' E 121°35'0 0.0
2017-Jan-13 06:33N 31°23' E 121°35'0 0.4
2017-Jan-13 05:31N 31°23' E 121°35'3 3.6
2017-Jan-13 04:33N 31°22' E 121°38'1010.1
2017-Jan-13 03:33N 31°15' E 121°47'1010.0
2017-Jan-13 02:33N 31°08' E 121°55'  
2017-Jan-10 17:23N 34°36' E 134°54'910.7
2017-Jan-10 16:33N 34°36' E 135°04'10 9.7
2017-Jan-10 15:33N 34°40' E 135°15'1 0.5
2017-Jan-10 14:25N 34°41' E 135°15'0 0.0
2017-Jan-10 13:31N 34°41' E 135°15'0 0.0
2017-Jan-10 12:31N 34°41' E 135°15'0 0.0
2017-Jan-10 11:31N 34°41' E 135°15'0 0.0
2017-Jan-10 10:31N 34°41' E 135°15'0 0.0
2017-Jan-10 09:25N 34°41' E 135°15'2 2.6
2017-Jan-10 08:33N 34°39' E 135°16'6 3.0
2017-Jan-10 06:26N 34°39' E 135°24'0 0.0
2017-Jan-10 05:26N 34°39' E 135°24'0 0.0
2017-Jan-10 04:26N 34°39' E 135°24'0 0.0
2017-Jan-09 23:14N 34°39' E 135°24'0 0.0
2017-Jan-09 22:26N 34°39' E 135°24'2 2.3
2017-Jan-09 21:33N 34°37' E 135°22'0 0.4
2017-Jan-09 20:23N 34°37' E 135°22'0 0.0
2017-Jan-09 19:23N 34°37' E 135°22'0 0.0
2017-Jan-09 18:23N 34°37' E 135°22'0 0.0
2017-Jan-09 17:29N 34°37' E 135°22'0 0.0
2017-Jan-09 16:29N 34°37' E 135°22'0 0.0
2017-Jan-09 14:17N 34°37' E 135°22'0 0.0
2017-Jan-09 13:29N 34°37' E 135°22'0 0.0
2017-Jan-09 12:23N 34°37' E 135°22'0 0.0
2017-Jan-09 11:17N 34°37' E 135°22'0 0.0
2017-Jan-09 10:23N 34°37' E 135°22'0 0.0
2017-Jan-09 09:23N 34°37' E 135°22'0 0.0
2017-Jan-09 08:29N 34°37' E 135°22'0 0.0
2017-Jan-09 07:23N 34°37' E 135°22'0 0.0
2017-Jan-09 06:11N 34°37' E 135°22'1 0.9
2017-Jan-09 05:33N 34°37' E 135°21'10 9.8
2017-Jan-09 04:33N 34°35' E 135°10'  

Dump ship's entire track history